createdAt,value
2018-08-16T00:01:53.259Z,101537.48
2018-08-16T00:06:45.801Z,101541.58
2018-08-16T00:11:38.310Z,101534.44
2018-08-16T00:16:30.857Z,101538.28
2018-08-16T00:21:23.503Z,101532.55
2018-08-16T00:26:16.067Z,101535.28
2018-08-16T00:31:08.637Z,101535.52
2018-08-16T00:36:01.168Z,101540.45
2018-08-16T00:40:53.739Z,101531.16
2018-08-16T00:45:46.346Z,101532.23
2018-08-16T00:50:38.878Z,101527.59
2018-08-16T00:55:31.479Z,101527.02
2018-08-16T01:00:24.076Z,101523.48
2018-08-16T01:05:16.660Z,101521.81
2018-08-16T01:10:11.135Z,101526.47
2018-08-16T01:15:06.295Z,101521.27
2018-08-16T01:19:58.902Z,101518.80
2018-08-16T01:24:51.486Z,101523.42
2018-08-16T01:29:44.064Z,101514.97
2018-08-16T01:34:36.597Z,101519.02
2018-08-16T01:39:29.241Z,101521.77
2018-08-16T01:44:21.848Z,101526.11
2018-08-16T01:49:31.017Z,101518.72
2018-08-16T01:54:23.714Z,101523.33
2018-08-16T01:59:16.252Z,101529.06
2018-08-16T02:04:08.788Z,101520.58
2018-08-16T02:09:01.282Z,101520.58
2018-08-16T02:13:53.785Z,101518.91
2018-08-16T02:18:47.250Z,101525.72
2018-08-16T02:23:40.859Z,101528.45
2018-08-16T02:28:34.651Z,101522.95
2018-08-16T02:33:27.172Z,101528.91
2018-08-16T02:38:19.740Z,101528.63
2018-08-16T02:43:12.323Z,101520.45
2018-08-16T02:48:04.963Z,101526.14
2018-08-16T02:52:57.543Z,101520.12
2018-08-16T02:57:50.101Z,101522.00
2018-08-16T03:02:42.629Z,101525.25
2018-08-16T03:07:35.626Z,101519.78
2018-08-16T03:12:28.170Z,101515.37
2018-08-16T03:17:20.730Z,101514.27
2018-08-16T03:22:13.316Z,101503.83
2018-08-16T03:27:05.967Z,101499.98
2018-08-16T03:31:58.523Z,101504.05
2018-08-16T03:36:51.046Z,101505.61
2018-08-16T03:41:43.643Z,101516.29
2018-08-16T03:46:36.197Z,101518.22
2018-08-16T03:51:28.730Z,101517.94
2018-08-16T03:56:21.250Z,101514.30
2018-08-16T04:01:13.809Z,101513.25
2018-08-16T04:06:06.437Z,101515.98
2018-08-16T04:10:59.019Z,101514.61
2018-08-16T04:15:51.664Z,101518.42
2018-08-16T04:20:44.263Z,101514.61
2018-08-16T04:25:36.816Z,101518.22
2018-08-16T04:30:29.416Z,101519.30
2018-08-16T04:35:22.038Z,101520.41
2018-08-16T04:40:14.769Z,101517.70
2018-08-16T04:45:07.919Z,101520.45
2018-08-16T04:50:00.466Z,101520.75
2018-08-16T04:54:52.990Z,101524.33
2018-08-16T04:59:45.564Z,101523.27
2018-08-16T05:04:38.167Z,101527.11
2018-08-16T05:09:30.915Z,101531.77
2018-08-16T05:14:23.466Z,101530.72
2018-08-16T05:19:16.099Z,101528.77
2018-08-16T05:24:08.762Z,101531.55
2018-08-16T05:29:01.297Z,101529.39
2018-08-16T05:33:53.868Z,101521.81
2018-08-16T05:38:46.448Z,101524.03
2018-08-16T05:43:39.109Z,101518.88
2018-08-16T05:48:31.635Z,101517.83
2018-08-16T05:53:24.230Z,101522.22
2018-08-16T05:58:16.923Z,101515.19
2018-08-16T06:03:10.264Z,101507.28
2018-08-16T06:08:02.974Z,101502.94
2018-08-16T06:12:55.530Z,101502.70
2018-08-16T06:17:48.226Z,101493.69
2018-08-16T06:22:40.957Z,101499.70
2018-08-16T06:27:33.763Z,101501.08
2018-08-16T06:32:26.309Z,101504.66
2018-08-16T06:37:19.131Z,101504.93
2018-08-16T06:42:11.898Z,101502.47
2018-08-16T06:47:04.558Z,101499.48
2018-08-16T06:51:57.169Z,101492.38
2018-08-16T06:56:49.827Z,101485.50
2018-08-16T07:01:42.539Z,101483.48
2018-08-16T07:06:35.163Z,101490.39
2018-08-16T07:11:27.758Z,101486.38
2018-08-16T07:16:20.430Z,101479.47
2018-08-16T07:21:12.993Z,101489.14
2018-08-16T07:26:06.066Z,101483.05
2018-08-16T07:30:58.823Z,101479.90
2018-08-16T07:35:51.394Z,101479.69
2018-08-16T07:40:44.090Z,101487.72
2018-08-16T07:45:36.895Z,101489.34
2018-08-16T07:50:29.499Z,101482.24
2018-08-16T07:55:22.099Z,101485.27
2018-08-16T08:00:17.715Z,101479.25
2018-08-16T08:05:10.646Z,101481.59
2018-08-16T08:10:03.634Z,101482.62
2018-08-16T08:14:56.320Z,101477.80
2018-08-16T08:19:48.908Z,101477.16
2018-08-16T08:24:41.483Z,101470.63
2018-08-16T08:29:34.166Z,101464.11
2018-08-16T08:34:26.752Z,101458.43
2018-08-16T08:39:19.258Z,101453.91
2018-08-16T08:44:18.278Z,101453.47
2018-08-16T08:49:10.899Z,101447.63
2018-08-16T08:54:54.486Z,101446.91
2018-08-16T08:59:47.059Z,101436.01
2018-08-16T09:04:39.623Z,101437.98
2018-08-16T09:09:32.370Z,101431.86
2018-08-16T09:15:46.796Z,101429.02
2018-08-16T09:20:39.373Z,101424.04
2018-08-16T09:25:32.032Z,101417.34
2018-08-16T09:30:42.230Z,101418.90
2018-08-16T09:35:35.050Z,101412.48
2018-08-16T09:40:27.681Z,101404.37
2018-08-16T09:45:42.812Z,101403.73
2018-08-16T09:50:35.464Z,101396.25
2018-08-16T09:55:28.448Z,101392.98
2018-08-16T10:00:26.772Z,101379.98
2018-08-16T10:05:19.481Z,101388.74
2018-08-16T10:10:12.087Z,101395.55
2018-08-16T10:15:05.019Z,101380.13
2018-08-16T10:19:57.674Z,101361.48
2018-08-16T10:24:50.204Z,101357.97
2018-08-16T10:29:42.721Z,101355.19
2018-08-16T10:34:35.318Z,101340.27
2018-08-16T10:39:28.036Z,101351.30
2018-08-16T10:44:20.626Z,101350.66
2018-08-16T10:49:14.068Z,101347.25
2018-08-16T10:54:06.755Z,101339.35
2018-08-16T10:58:59.518Z,101333.95
2018-08-16T11:03:52.275Z,101340.14
2018-08-16T11:08:45.236Z,101329.45
2018-08-16T11:13:37.959Z,101321.37
2018-08-16T11:18:30.606Z,101317.88
2018-08-16T11:23:23.141Z,101316.59
2018-08-16T11:28:15.726Z,101306.34
2018-08-16T11:33:08.883Z,101292.05
2018-08-16T11:38:01.546Z,101292.30
2018-08-16T11:42:54.174Z,101282.48
2018-08-16T11:47:46.698Z,101275.87
2018-08-16T11:52:39.316Z,101272.65
2018-08-16T11:57:31.923Z,101263.48
2018-08-16T12:02:24.475Z,101266.73
2018-08-16T12:07:17.307Z,101267.19
2018-08-16T12:12:09.907Z,101269.64
2018-08-16T12:17:02.560Z,101263.47
2018-08-16T12:21:55.558Z,101240.69
2018-08-16T12:26:48.122Z,101239.63
2018-08-16T12:31:40.747Z,101238.33
2018-08-16T12:36:33.340Z,101234.47
2018-08-16T12:41:25.958Z,101229.02
2018-08-16T12:46:18.805Z,101235.86
2018-08-16T12:51:11.365Z,101212.84
2018-08-16T12:56:04.057Z,101211.49
2018-08-16T13:00:56.602Z,101203.84
2018-08-16T13:05:49.343Z,101182.50
2018-08-16T13:10:41.937Z,101185.58
2018-08-16T13:15:34.557Z,101185.00
2018-08-16T13:20:27.195Z,101170.56
2018-08-16T13:25:19.771Z,101168.23
2018-08-16T13:30:12.489Z,101154.67
2018-08-16T13:35:05.130Z,101151.15
2018-08-16T13:39:57.911Z,101150.47
2018-08-16T13:44:50.554Z,101145.16
2018-08-16T13:49:43.127Z,101145.81
2018-08-16T13:54:35.745Z,101133.27
2018-08-16T13:59:28.292Z,101120.48
2018-08-16T14:04:20.838Z,101125.16
2018-08-16T14:09:13.469Z,101126.55
2018-08-16T14:14:06.135Z,101118.63
2018-08-16T14:18:58.737Z,101106.27
2018-08-16T14:23:51.212Z,101113.15
2018-08-16T14:28:43.770Z,101111.75
2018-08-16T14:33:36.340Z,101109.19
2018-08-16T14:38:28.903Z,101098.63
2018-08-16T14:43:21.474Z,101106.77
2018-08-16T14:48:14.034Z,101100.53
2018-08-16T14:53:06.733Z,101092.74
2018-08-16T14:57:59.277Z,101084.30
2018-08-16T15:02:51.928Z,101076.84
2018-08-16T15:07:44.548Z,101079.26
2018-08-16T15:12:37.083Z,101070.38
2018-08-16T15:17:29.634Z,101078.81
2018-08-16T15:22:22.238Z,101073.35
2018-08-16T15:27:14.823Z,101078.34
2018-08-16T15:32:07.604Z,101076.14
2018-08-16T15:37:00.119Z,101067.86
2018-08-16T15:41:52.774Z,101063.09
2018-08-16T15:46:45.388Z,101059.28
2018-08-16T15:51:38.127Z,101056.55
2018-08-16T15:56:30.770Z,101061.47
2018-08-16T16:01:23.396Z,101047.23
2018-08-16T16:06:15.980Z,101048.62
2018-08-16T16:11:08.453Z,101041.44
2018-08-16T16:16:01.014Z,101036.36
2018-08-16T16:20:53.699Z,101028.55
2018-08-16T16:25:46.250Z,101030.52
2018-08-16T16:30:38.786Z,101029.78
2018-08-16T16:35:31.343Z,101025.69
2018-08-16T16:40:23.990Z,101022.68
2018-08-16T16:45:16.546Z,101012.72
2018-08-16T16:50:09.489Z,101006.48
2018-08-16T16:55:02.052Z,101006.68
2018-08-16T16:59:54.577Z,101002.25
2018-08-16T17:04:47.144Z,101000.05
2018-08-16T17:09:39.709Z,101003.64
2018-08-16T17:14:32.212Z,100993.14
2018-08-16T17:19:24.847Z,100996.56
2018-08-16T17:24:17.686Z,100999.80
2018-08-16T17:29:10.320Z,100999.63
2018-08-16T17:34:02.873Z,101002.20
2018-08-16T17:38:55.439Z,100998.88
2018-08-16T17:43:48.067Z,100993.17
2018-08-16T17:48:40.641Z,100996.25
2018-08-16T17:53:33.247Z,100998.48
2018-08-16T17:58:25.829Z,100994.36
2018-08-16T18:03:18.384Z,100994.13
2018-08-16T18:08:10.990Z,100999.45
2018-08-16T18:13:03.520Z,100998.18
2018-08-16T18:17:56.056Z,100998.44
2018-08-16T18:22:48.584Z,101000.41
2018-08-16T18:27:41.102Z,100997.20
2018-08-16T18:32:33.649Z,101004.27
2018-08-16T18:37:26.226Z,101000.68
2018-08-16T18:42:18.732Z,101001.39
2018-08-16T18:47:11.349Z,101004.19
2018-08-16T18:52:03.893Z,101008.30
2018-08-16T18:56:56.547Z,101012.00
2018-08-16T19:01:49.094Z,101014.32
2018-08-16T19:06:41.647Z,101013.26
2018-08-16T19:11:34.157Z,101012.45
2018-08-16T19:16:26.674Z,101025.17
2018-08-16T19:21:19.235Z,101014.98
2018-08-16T19:26:11.904Z,101018.09
2018-08-16T19:31:04.541Z,101015.29
2018-08-16T19:35:57.112Z,101012.83
2018-08-16T19:40:49.842Z,101013.98
2018-08-16T19:45:42.395Z,101016.84
2018-08-16T19:50:34.970Z,101016.33
2018-08-16T19:55:27.521Z,101009.98
2018-08-16T20:00:20.296Z,101010.54
2018-08-16T20:05:12.912Z,101013.16
2018-08-16T20:10:07.527Z,101011.22
2018-08-16T20:15:00.113Z,101011.88
2018-08-16T20:19:52.713Z,101014.48
2018-08-16T20:24:45.690Z,101013.59
2018-08-16T20:29:38.400Z,101016.17
2018-08-16T20:34:31.038Z,101012.23
2018-08-16T20:39:23.623Z,101009.38
2018-08-16T20:44:16.267Z,101004.64
2018-08-16T20:49:08.892Z,101007.55
2018-08-16T20:54:01.459Z,101005.23
2018-08-16T20:58:54.000Z,101009.41
2018-08-16T21:03:46.774Z,101016.58
2018-08-16T21:08:39.396Z,101012.11
2018-08-16T21:13:32.039Z,101014.39
2018-08-16T21:18:24.669Z,101013.09
2018-08-16T21:23:17.350Z,101012.63
2018-08-16T21:28:09.954Z,101017.91
2018-08-16T21:33:02.477Z,101029.34
2018-08-16T21:37:55.053Z,101034.78
2018-08-16T21:42:47.606Z,101032.26
2018-08-16T21:47:40.130Z,101035.05
2018-08-16T21:52:32.709Z,101032.78
2018-08-16T21:57:25.334Z,101031.02
2018-08-16T22:02:17.910Z,101040.77
2018-08-16T22:07:21.974Z,101033.39
2018-08-16T22:12:14.479Z,101036.66
2018-08-16T22:17:07.120Z,101042.17
2018-08-16T22:21:59.697Z,101047.80
2018-08-16T22:26:52.294Z,101041.05
2018-08-16T22:31:44.876Z,101040.78
2018-08-16T22:36:37.598Z,101033.58
2018-08-16T22:41:30.080Z,101038.19
2018-08-16T22:46:22.593Z,101028.21
2018-08-16T22:51:15.172Z,101033.23
2018-08-16T22:56:07.791Z,101025.95
2018-08-16T23:01:00.363Z,101029.09
2018-08-16T23:05:53.063Z,101026.98
2018-08-16T23:10:45.638Z,101031.12
2018-08-16T23:15:38.296Z,101026.02
2018-08-16T23:20:30.979Z,101019.27
2018-08-16T23:25:23.570Z,101018.78
2018-08-16T23:30:16.394Z,101021.95
2018-08-16T23:35:09.319Z,101019.82
2018-08-16T23:50:50.236Z,101023.22
2018-08-16T23:55:42.668Z,101021.41
